createdAt,value
2023-07-17T00:04:36.092Z,17.59
2023-07-17T00:10:42.596Z,20.43
2023-07-17T00:16:51.471Z,19.99
2023-07-17T00:23:09.458Z,20.71
2023-07-17T00:29:32.183Z,21.96
2023-07-17T00:35:37.842Z,21.70
2023-07-17T00:41:45.575Z,20.45
2023-07-17T00:47:52.833Z,17.38
2023-07-17T00:53:57.093Z,18.41
2023-07-17T01:00:01.539Z,20.19
2023-07-17T01:06:04.036Z,18.00
2023-07-17T01:12:06.473Z,20.32
2023-07-17T01:18:10.043Z,20.01
2023-07-17T01:24:12.432Z,19.88
2023-07-17T01:30:14.871Z,19.85
2023-07-17T01:36:18.438Z,18.67
2023-07-17T01:42:28.962Z,19.73
2023-07-17T01:48:30.847Z,20.81
2023-07-17T01:54:35.890Z,20.39
2023-07-17T02:00:38.329Z,20.33
2023-07-17T02:06:42.796Z,19.49
2023-07-17T02:12:48.262Z,20.18
2023-07-17T02:19:05.801Z,20.85
2023-07-17T02:25:09.566Z,20.68
2023-07-17T02:31:16.007Z,19.93
2023-07-17T02:37:24.188Z,19.45
2023-07-17T02:43:26.647Z,20.07
2023-07-17T02:49:29.125Z,18.51
2023-07-17T02:55:31.659Z,19.78
2023-07-17T03:01:40.162Z,19.78
2023-07-17T03:07:45.541Z,19.62
2023-07-17T03:13:48.098Z,19.80
2023-07-17T03:19:52.568Z,19.02
2023-07-17T03:26:10.086Z,19.15
2023-07-17T03:32:12.610Z,19.95
2023-07-17T03:38:30.103Z,19.92
2023-07-17T03:44:32.660Z,19.38
2023-07-17T03:50:37.075Z,20.56
2023-07-17T03:56:41.564Z,20.28
2023-07-17T04:02:47.051Z,22.29
2023-07-17T04:08:49.468Z,22.15
2023-07-17T04:14:55.453Z,22.63
2023-07-17T04:20:58.391Z,22.80
2023-07-17T04:27:01.848Z,23.33
2023-07-17T04:33:06.479Z,24.88
2023-07-17T04:39:45.741Z,24.95
2023-07-17T04:46:00.481Z,24.93
2023-07-17T04:52:38.139Z,25.71
2023-07-17T04:58:45.125Z,25.76
2023-07-17T05:05:20.218Z,25.16
2023-07-17T05:11:28.734Z,26.48
2023-07-17T05:17:49.402Z,25.58
2023-07-17T05:23:55.737Z,26.78
2023-07-17T05:30:09.579Z,26.81
2023-07-17T05:36:13.010Z,27.50
2023-07-17T05:42:19.755Z,28.14
2023-07-17T05:48:29.656Z,27.71
2023-07-17T05:54:47.252Z,28.15
2023-07-17T06:00:54.912Z,27.68
2023-07-17T06:06:59.965Z,28.14
2023-07-17T06:13:10.920Z,27.08
2023-07-17T06:19:22.210Z,29.17
2023-07-17T06:25:27.690Z,27.72
2023-07-17T06:31:29.782Z,28.56
2023-07-17T06:37:44.670Z,29.50
2023-07-17T06:43:47.110Z,28.06
2023-07-17T06:50:10.545Z,28.51
2023-07-17T06:56:15.739Z,29.40
2023-07-17T07:02:19.737Z,29.82
2023-07-17T07:08:30.910Z,29.02
2023-07-17T07:14:45.351Z,29.64
2023-07-17T07:20:53.602Z,30.33
2023-07-17T07:27:01.720Z,28.42
2023-07-17T07:33:04.015Z,30.68
2023-07-17T07:39:13.473Z,31.42
2023-07-17T07:45:22.178Z,30.71
2023-07-17T07:51:36.477Z,30.47
2023-07-17T07:58:01.715Z,30.33
2023-07-17T08:04:06.275Z,30.41
2023-07-17T08:10:42.352Z,32.16
2023-07-17T08:16:59.071Z,31.83
2023-07-17T08:23:04.340Z,32.42
2023-07-17T08:29:22.527Z,31.01
2023-07-17T08:35:29.446Z,32.35
2023-07-17T08:41:31.969Z,30.21
2023-07-17T08:48:08.558Z,33.21
2023-07-17T08:54:30.159Z,32.65
2023-07-17T09:00:52.167Z,32.66
2023-07-17T09:07:01.922Z,33.58
2023-07-17T09:13:56.237Z,33.32
2023-07-17T09:20:26.666Z,33.29
2023-07-17T09:26:39.473Z,32.96
2023-07-17T09:32:50.245Z,32.24
2023-07-17T09:38:56.680Z,32.83
2023-07-17T09:45:00.281Z,33.40
2023-07-17T09:51:15.971Z,31.59
2023-07-17T09:57:35.290Z,33.24
2023-07-17T10:03:40.736Z,34.36
2023-07-17T10:09:45.837Z,33.56
2023-07-17T10:15:51.553Z,34.23
2023-07-17T10:22:36.563Z,34.33
2023-07-17T10:28:39.998Z,33.62
2023-07-17T10:34:54.517Z,34.42
2023-07-17T10:41:17.290Z,34.53
2023-07-17T10:47:27.825Z,34.35
2023-07-17T10:53:32.033Z,32.61
2023-07-17T10:59:37.799Z,33.96
2023-07-17T11:05:45.745Z,34.94
2023-07-17T11:11:54.813Z,34.99
2023-07-17T11:18:06.364Z,33.92
2023-07-17T11:24:08.618Z,34.89
2023-07-17T11:30:26.354Z,34.12
2023-07-17T11:36:39.828Z,33.96
2023-07-17T11:43:05.405Z,34.91
2023-07-17T11:49:08.396Z,34.99
2023-07-17T11:55:36.495Z,35.78
2023-07-17T12:01:42.674Z,35.54
2023-07-17T12:07:46.590Z,34.69
2023-07-17T12:13:49.683Z,34.55
2023-07-17T12:19:51.570Z,32.97
2023-07-17T12:25:53.373Z,34.94
2023-07-17T12:31:57.034Z,35.39
2023-07-17T12:38:00.489Z,35.89
2023-07-17T12:44:37.047Z,34.60
2023-07-17T12:50:40.646Z,33.73
2023-07-17T12:56:47.861Z,34.51
2023-07-17T13:02:50.665Z,34.60
2023-07-17T13:08:56.950Z,34.67
2023-07-17T13:15:00.469Z,34.77
2023-07-17T13:21:02.606Z,34.22
2023-07-17T13:27:09.596Z,35.51
2023-07-17T13:33:11.972Z,35.10
2023-07-17T13:39:16.669Z,34.97
2023-07-17T13:45:42.586Z,34.55
2023-07-17T13:51:49.063Z,35.56
2023-07-17T13:58:06.446Z,35.19
2023-07-17T14:04:24.225Z,34.89
2023-07-17T14:17:04.181Z,32.87
2023-07-17T14:23:25.625Z,34.71
2023-07-17T14:30:10.091Z,35.10
2023-07-17T14:36:49.310Z,33.72
2023-07-17T14:43:59.893Z,33.41
2023-07-17T14:58:02.365Z,33.13
2023-07-17T15:04:17.832Z,32.69
2023-07-17T15:17:47.045Z,33.27
2023-07-17T15:39:08.475Z,32.43
2023-07-17T15:58:14.514Z,32.45
2023-07-17T15:59:14.162Z,34.31
2023-07-17T16:05:17.256Z,33.21
2023-07-17T17:02:31.303Z,30.46
2023-07-17T17:28:08.656Z,31.85
2023-07-17T17:34:13.442Z,31.95
2023-07-17T17:40:15.429Z,30.33
2023-07-17T17:46:27.999Z,28.46
2023-07-17T17:52:33.756Z,31.00
2023-07-17T17:58:50.678Z,29.56
2023-07-17T18:05:03.236Z,29.08
2023-07-17T18:11:13.843Z,30.42
2023-07-17T18:17:41.059Z,29.52
2023-07-17T18:23:43.861Z,28.89
2023-07-17T18:29:51.378Z,28.69
2023-07-17T18:35:55.834Z,29.21
2023-07-17T18:42:11.402Z,27.64
2023-07-17T18:48:20.576Z,25.44
2023-07-17T18:54:35.410Z,26.62
2023-07-17T19:00:44.903Z,25.89
2023-07-17T19:07:08.494Z,28.48
2023-07-17T19:13:22.044Z,26.74
2023-07-17T19:19:34.519Z,26.29
2023-07-17T19:25:46.368Z,25.50
2023-07-17T19:31:49.499Z,25.93
2023-07-17T19:44:08.466Z,26.37
2023-07-17T19:50:41.256Z,26.29
2023-07-17T19:56:46.459Z,27.57
2023-07-17T20:02:49.042Z,27.65
2023-07-17T20:08:57.988Z,27.40
2023-07-17T20:15:30.181Z,26.65
2023-07-17T20:21:55.556Z,27.24
2023-07-17T20:28:23.561Z,25.38
2023-07-17T20:41:52.739Z,24.40
2023-07-17T20:48:09.752Z,24.51
2023-07-17T20:53:19.346Z,25.23
2023-07-17T20:54:32.591Z,23.85
2023-07-17T21:00:54.421Z,25.35
2023-07-17T21:07:00.944Z,24.86
2023-07-17T21:13:13.013Z,25.33
2023-07-17T21:19:23.040Z,24.79
2023-07-17T21:25:37.381Z,25.95
2023-07-17T21:31:55.179Z,24.83
2023-07-17T21:38:02.736Z,25.55
2023-07-17T21:44:21.375Z,23.29
2023-07-17T21:50:39.579Z,24.27
2023-07-17T21:56:42.498Z,24.95
2023-07-17T22:02:54.842Z,23.86
2023-07-17T22:09:07.420Z,24.78
2023-07-17T22:15:48.045Z,25.39
2023-07-17T22:22:05.176Z,23.54
2023-07-17T22:28:17.808Z,24.24
2023-07-17T22:34:23.398Z,23.50
2023-07-17T22:40:36.946Z,25.13
2023-07-17T22:46:48.502Z,24.47
2023-07-17T22:52:51.809Z,23.92
2023-07-17T22:59:26.622Z,24.35
2023-07-17T23:05:32.993Z,25.38
2023-07-17T23:11:41.355Z,24.91
2023-07-17T23:17:52.815Z,25.13
2023-07-17T23:23:55.512Z,25.60
2023-07-17T23:30:22.157Z,25.78
2023-07-17T23:36:35.131Z,24.57
2023-07-17T23:42:43.737Z,25.70
2023-07-17T23:49:12.634Z,25.80
2023-07-17T23:55:53.592Z,23.59
